Time;durP1;ratioP1;P1;durP2;ratioP2;P2;SDS_P1;SDS_P2;PMS_P1;PMS_P2;Temp;Humidity;BMP_temperature;BMP_pressure;BME280_temperature;BME280_humidity;BME280_pressure;Samples;Min_cycle;Max_cycle;Signal;HPM_P1;HPM_P2
2023/12/27 00:01:00;;;;;;;1.10;1.10;;;;;;;-3.27;97.72;97287.03;4779433;30;20066;-79
2023/12/27 00:03:28;;;;;;;1.10;1.10;;;;;;;-3.25;98.03;97284.22;4785160;29;20572;-79
2023/12/27 00:05:55;;;;;;;0.90;0.90;;;;;;;-3.30;98.27;97282.97;4784920;29;20116;-79
2023/12/27 00:08:22;;;;;;;1.10;1.10;;;;;;;-3.31;98.19;97283.19;4784841;29;20055;-79
2023/12/27 00:10:50;;;;;;;0.95;0.95;;;;;;;-3.30;98.68;97284.81;4784618;29;20503;-79
2023/12/27 00:13:17;;;;;;;1.00;1.00;;;;;;;-3.32;98.60;97278.91;4784895;29;20059;-79
2023/12/27 00:15:45;;;;;;;0.95;0.95;;;;;;;-3.29;99.02;97281.16;4784737;29;20057;-79
2023/12/27 00:18:16;;;;;;;1.10;1.10;;;;;;;-3.31;99.06;97277.91;4784811;29;20056;-79
2023/12/27 00:20:44;;;;;;;1.00;1.00;;;;;;;-3.32;98.92;97278.91;4785126;29;20051;-79
2023/12/27 00:23:11;;;;;;;1.08;1.08;;;;;;;-3.33;98.62;97287.84;4783713;30;20408;-80
2023/12/27 00:25:38;;;;;;;0.90;0.90;;;;;;;-3.28;98.64;97285.44;4783769;29;20058;-80
2023/12/27 00:28:06;;;;;;;1.00;1.00;;;;;;;-3.28;98.37;97283.59;4767163;30;20462;-79
2023/12/27 00:30:33;;;;;;;1.10;1.10;;;;;;;-3.30;98.11;97277.69;4766963;30;20052;-79
2023/12/27 00:33:01;;;;;;;1.27;1.17;;;;;;;-3.31;98.33;97276.06;4767512;30;20170;-80
2023/12/27 00:35:29;;;;;;;1.00;1.00;;;;;;;-3.31;98.51;97276.06;4749394;30;20059;-78
2023/12/27 00:37:56;;;;;;;0.90;0.90;;;;;;;-3.30;98.56;97269.78;4752039;30;20059;-79
2023/12/27 00:40:24;;;;;;;1.05;1.05;;;;;;;-3.26;98.95;97267.56;4765926;30;20052;-79
2023/12/27 00:42:51;;;;;;;1.00;1.00;;;;;;;-3.24;99.01;97270.00;4752095;30;20056;-79
2023/12/27 00:45:18;;;;;;;1.00;1.00;;;;;;;-3.23;99.20;97264.53;4766053;30;20476;-79
2023/12/27 00:47:46;;;;;;;1.02;1.02;;;;;;;-3.23;99.32;97266.38;4750718;30;20152;-80
2023/12/27 00:50:13;;;;;;;1.10;1.10;;;;;;;-3.23;99.64;97264.53;4765836;30;20152;-79
2023/12/27 00:52:42;;;;;;;1.30;1.20;;;;;;;-3.24;99.54;97265.56;4765662;30;20143;-80
2023/12/27 00:55:09;;;;;;;0.93;0.93;;;;;;;-3.23;99.56;97267.16;4765863;30;20056;-79
2023/12/27 00:57:37;;;;;;;1.00;1.00;;;;;;;-3.21;99.60;97259.88;4779961;30;20048;-79
2023/12/27 01:00:05;;;;;;;1.10;1.10;;;;;;;-3.22;99.75;97252.16;4787856;30;20067;-80
2023/12/27 01:02:35;;;;;;;1.00;1.00;;;;;;;-3.27;99.58;97258.00;4801445;29;20407;-79
2023/12/27 01:05:03;;;;;;;0.95;0.95;;;;;;;-3.29;99.72;97257.44;4787453;30;20063;-80
2023/12/27 01:07:30;;;;;;;0.85;0.85;;;;;;;-3.28;100.00;97259.03;4787490;29;20441;-80
2023/12/27 01:09:57;;;;;;;1.08;1.08;;;;;;;-3.27;100.00;97265.94;4800995;29;20051;-79
2023/12/27 01:12:25;;;;;;;1.10;1.10;;;;;;;-3.27;99.70;97269.41;4787358;29;20142;-79
2023/12/27 01:14:53;;;;;;;1.10;1.10;;;;;;;-3.27;99.89;97273.84;4801296;29;20092;-79
2023/12/27 01:17:20;;;;;;;1.00;1.00;;;;;;;-3.26;99.81;97272.84;4801320;29;20051;-79
2023/12/27 01:19:48;;;;;;;1.35;1.25;;;;;;;-3.27;99.82;97271.22;4787396;29;20146;-79
2023/12/27 01:22:15;;;;;;;1.00;1.00;;;;;;;-3.27;99.57;97266.78;4787831;30;20468;-80
2023/12/27 01:24:42;;;;;;;1.30;1.20;;;;;;;-3.26;99.87;97264.94;4787637;29;20062;-81
2023/12/27 01:27:10;;;;;;;1.10;1.10;;;;;;;-3.25;100.00;97260.47;4775270;29;20051;-79
2023/12/27 01:29:37;;;;;;;1.08;1.08;;;;;;;-3.24;100.00;97256.81;4783284;29;20051;-79
2023/12/27 01:32:04;;;;;;;1.10;1.10;;;;;;;-3.21;100.00;97259.88;4769327;30;20051;-79
2023/12/27 01:34:32;;;;;;;1.15;1.13;;;;;;;-3.22;100.00;97260.88;4769164;30;20087;-80
2023/12/27 01:37:04;;;;;;;0.88;0.88;;;;;;;-3.24;100.00;97255.00;4769219;30;20115;-80
2023/12/27 01:39:31;;;;;;;1.13;1.13;;;;;;;-3.24;100.00;97255.00;4768937;30;20056;-80
2023/12/27 01:41:58;;;;;;;1.10;1.10;;;;;;;-3.26;100.00;97257.03;4782540;30;20064;-80
2023/12/27 01:44:26;;;;;;;1.10;1.10;;;;;;;-3.26;100.00;97257.03;4769293;30;20056;-80
2023/12/27 01:46:53;;;;;;;1.10;1.10;;;;;;;-3.28;100.00;97262.47;4768485;30;20087;-79
2023/12/27 01:49:21;;;;;;;1.15;1.15;;;;;;;-3.29;100.00;97252.16;4768119;30;20080;-79
2023/12/27 01:51:48;;;;;;;0.90;0.90;;;;;;;-3.27;100.00;97255.38;4782160;30;20113;-80
2023/12/27 01:54:16;;;;;;;1.05;1.05;;;;;;;-3.29;100.00;97258.22;4770537;30;20473;-80
2023/12/27 01:56:46;;;;;;;1.10;1.10;;;;;;;-3.26;100.00;97259.66;4800404;29;20150;-80
2023/12/27 01:59:13;;;;;;;1.30;1.20;;;;;;;-3.28;100.00;97259.03;4786774;29;20059;-80
2023/12/27 02:01:41;;;;;;;1.02;1.02;;;;;;;-3.25;100.00;97257.81;4800266;29;20050;-80
2023/12/27 02:04:08;;;;;;;0.98;0.98;;;;;;;-3.26;100.00;97251.75;4800619;29;20144;-79
2023/12/27 02:06:36;;;;;;;1.10;1.10;;;;;;;-3.30;100.00;97255.78;4786439;29;20082;-80
2023/12/27 02:09:04;;;;;;;1.02;1.02;;;;;;;-3.25;100.00;97258.63;4800180;29;20066;-80
2023/12/27 02:11:31;;;;;;;1.02;1.02;;;;;;;-3.20;100.00;97258.84;4786560;29;20055;-80
2023/12/27 02:13:58;;;;;;;1.30;1.20;;;;;;;-3.19;100.00;97257.03;4799722;29;20059;-80
2023/12/27 02:16:27;;;;;;;1.02;1.02;;;;;;;-3.22;100.00;97260.88;4799940;29;20458;-80
2023/12/27 02:18:55;;;;;;;1.10;1.10;;;;;;;-3.25;100.00;97257.81;4785029;29;20055;-79
2023/12/27 02:21:24;;;;;;;0.90;0.90;;;;;;;-3.27;100.00;97263.28;4800217;29;20051;-80
2023/12/27 02:23:53;;;;;;;1.23;1.17;;;;;;;-3.25;100.00;97260.47;4800198;29;20063;-81
2023/12/27 02:26:20;;;;;;;1.20;1.17;;;;;;;-3.21;100.00;97270.44;4778564;30;20048;-81
2023/12/27 02:28:47;;;;;;;1.33;1.23;;;;;;;-3.17;100.00;97273.47;4767742;30;20055;-81
2023/12/27 02:31:14;;;;;;;1.00;1.00;;;;;;;-3.16;100.00;97267.19;4768158;30;20464;-80
2023/12/27 02:33:45;;;;;;;0.95;0.95;;;;;;;-3.15;100.00;97261.69;4767892;30;20128;-80
2023/12/27 02:36:13;;;;;;;1.00;1.00;;;;;;;-3.13;100.00;97259.69;4781688;30;20051;-81
2023/12/27 02:38:40;;;;;;;1.00;1.00;;;;;;;-3.11;100.00;97264.78;4767628;30;20573;-80
2023/12/27 02:41:08;;;;;;;0.88;0.88;;;;;;;-3.13;100.00;97259.69;4766807;30;20089;-79
2023/12/27 02:43:35;;;;;;;0.90;0.90;;;;;;;-3.13;100.00;97258.88;4781687;30;20051;-79
2023/12/27 02:46:02;;;;;;;1.08;1.08;;;;;;;-3.14;100.00;97259.88;4767868;30;20109;-80
2023/12/27 02:48:29;;;;;;;1.10;1.10;;;;;;;-3.14;100.00;97263.34;4769258;30;20513;-80
2023/12/27 02:50:57;;;;;;;1.13;1.13;;;;;;;-3.18;100.00;97251.56;4799145;29;20058;-80
2023/12/27 02:53:27;;;;;;;0.98;0.98;;;;;;;-3.14;100.00;97258.06;4799717;29;20525;-80
2023/12/27 02:55:54;;;;;;;0.80;0.80;;;;;;;-3.14;100.00;97260.72;4785483;29;20051;-81
2023/12/27 02:58:21;;;;;;;1.05;1.05;;;;;;;-3.14;100.00;97255.44;4785662;29;20571;-80
2023/12/27 03:00:52;;;;;;;1.30;1.20;;;;;;;-3.18;100.00;97254.19;4785209;29;20051;-80
2023/12/27 03:03:19;;;;;;;1.30;1.20;;;;;;;-3.25;100.00;97253.34;4785628;29;20090;-80
2023/12/27 03:05:47;;;;;;;1.10;1.10;;;;;;;-3.25;100.00;97252.56;4785067;29;20047;-80
2023/12/27 03:08:17;;;;;;;1.00;1.00;;;;;;;-3.24;100.00;97252.38;4785413;29;20142;-79
2023/12/27 03:10:44;;;;;;;1.10;1.10;;;;;;;-3.24;100.00;97260.28;4785358;29;20055;-80
2023/12/27 03:13:14;;;;;;;1.00;1.00;;;;;;;-3.25;100.00;97255.19;4798483;29;20165;-79
2023/12/27 03:15:42;;;;;;;1.25;1.20;;;;;;;-3.25;100.00;97253.34;4785113;29;20423;-80
2023/12/27 03:18:09;;;;;;;1.05;1.05;;;;;;;-3.27;100.00;97266.78;4785416;29;20055;-80
2023/12/27 03:20:36;;;;;;;0.98;0.98;;;;;;;-3.21;100.00;97256.44;4798604;29;20238;-80
2023/12/27 03:23:04;;;;;;;1.00;1.00;;;;;;;-3.19;100.00;97252.56;4789932;29;20079;-79
2023/12/27 03:25:31;;;;;;;1.25;1.20;;;;;;;-3.13;100.00;97256.25;4767145;30;20048;-80
2023/12/27 03:27:58;;;;;;;1.00;1.00;;;;;;;-3.16;100.00;97262.72;4767114;30;20067;-80
2023/12/27 03:30:25;;;;;;;1.00;1.00;;;;;;;-3.13;100.00;97256.25;4769331;30;20052;-79
2023/12/27 03:32:53;;;;;;;1.10;1.10;;;;;;;-3.10;100.00;97246.09;4785046;29;20113;-79
2023/12/27 03:35:20;;;;;;;1.02;1.02;;;;;;;-3.11;100.00;97254.22;4784067;30;20055;-83
2023/12/27 03:37:47;;;;;;;1.02;1.02;;;;;;;-3.17;100.00;97255.00;4799024;29;20051;-81
2023/12/27 03:40:15;;;;;;;1.00;1.00;;;;;;;-3.22;100.00;97255.59;4785214;29;20507;-79
2023/12/27 03:42:44;;;;;;;0.90;0.90;;;;;;;-3.21;100.00;97259.06;4783650;30;20076;-80
2023/12/27 03:45:11;;;;;;;1.02;1.02;;;;;;;-3.22;100.00;97255.59;4799171;29;20058;-80
2023/12/27 03:47:38;;;;;;;0.80;0.80;;;;;;;-3.22;100.00;97250.31;4785887;29;20055;-81
2023/12/27 03:50:06;;;;;;;1.10;1.10;;;;;;;-3.20;100.00;97258.03;4788994;29;20059;-82
2023/12/27 03:52:33;;;;;;;1.10;1.10;;;;;;;-3.16;100.00;97260.09;4786727;29;20051;-78
2023/12/27 03:55:01;;;;;;;1.30;1.20;;;;;;;-3.14;100.00;97258.06;4785684;30;20098;-81
2023/12/27 03:57:29;;;;;;;1.05;1.05;;;;;;;-3.14;100.00;97260.72;4785783;29;20062;-80
2023/12/27 03:59:57;;;;;;;0.90;0.90;;;;;;;-3.10;100.00;97261.91;4784196;30;20055;-82
2023/12/27 04:02:24;;;;;;;0.80;0.80;;;;;;;-3.08;100.00;97259.91;4785281;29;20598;-81
2023/12/27 04:04:51;;;;;;;0.88;0.88;;;;;;;-3.10;100.00;97256.63;4783936;29;20048;-80
2023/12/27 04:07:19;;;;;;;1.00;1.00;;;;;;;-3.11;100.00;97249.75;4783717;30;20051;-80
2023/12/27 04:09:46;;;;;;;1.00;1.00;;;;;;;-3.10;100.00;97255.84;4798605;29;20052;-81
2023/12/27 04:12:14;;;;;;;0.98;0.98;;;;;;;-3.12;100.00;97248.09;4787480;29;20067;-82
2023/12/27 04:14:42;;;;;;;0.90;0.90;;;;;;;-3.10;100.00;97255.84;4770693;30;20063;-83
2023/12/27 04:17:10;;;;;;;1.00;1.00;;;;;;;-3.13;100.00;97248.31;4439040;29;9999695;-83
2023/12/27 04:19:37;;;;;;;1.10;1.10;;;;;;;-3.14;100.00;97259.88;4770091;30;20063;-82
2023/12/27 04:22:05;;;;;;;1.10;1.10;;;;;;;-3.18;100.00;97254.19;4770621;30;20512;-81
2023/12/27 04:24:32;;;;;;;1.08;1.08;;;;;;;-3.20;100.00;97256.22;4768983;30;20048;-80
2023/12/27 04:27:03;;;;;;;1.02;1.02;;;;;;;-3.21;100.00;97259.88;4781176;30;20087;-81
2023/12/27 04:29:34;;;;;;;1.00;1.00;;;;;;;-3.20;100.00;97260.69;4779427;30;20055;-81
2023/12/27 04:32:02;;;;;;;1.08;1.08;;;;;;;-3.18;100.00;97262.09;4766978;30;20056;-83
2023/12/27 04:34:29;;;;;;;1.02;1.02;;;;;;;-3.21;100.00;97264.34;4767923;30;20109;-81
2023/12/27 04:36:57;;;;;;;0.98;0.98;;;;;;;-3.20;100.00;97264.13;4779689;30;20055;-80
2023/12/27 04:39:24;;;;;;;1.30;1.20;;;;;;;-3.18;100.00;97259.47;4775023;30;20456;-80
2023/12/27 04:41:51;;;;;;;1.27;1.20;;;;;;;-3.13;100.00;97269.44;4775412;29;20117;-80
2023/12/27 04:44:19;;;;;;;0.90;0.90;;;;;;;-3.16;100.00;97268.00;4784271;29;20157;-79
2023/12/27 04:46:46;;;;;;;1.00;1.00;;;;;;;-3.16;100.00;97259.28;4764888;30;20079;-81
2023/12/27 04:49:14;;;;;;;0.90;0.90;;;;;;;-3.17;100.00;97261.09;4777961;30;20148;-81
2023/12/27 04:51:41;;;;;;;1.10;1.10;;;;;;;-3.15;100.00;97252.97;4765364;30;20656;-80
2023/12/27 04:54:09;;;;;;;1.30;1.20;;;;;;;-3.13;100.00;97251.75;4765565;30;20051;-80
2023/12/27 04:56:36;;;;;;;1.00;1.00;;;;;;;-3.15;100.00;97253.78;4781904;29;20125;-80
2023/12/27 04:59:03;;;;;;;0.93;0.93;;;;;;;-3.20;100.00;97250.13;4781816;30;20074;-82
2023/12/27 05:01:31;;;;;;;1.00;1.00;;;;;;;-3.27;100.00;97250.94;4794005;29;20051;-81
2023/12/27 05:03:58;;;;;;;0.85;0.85;;;;;;;-3.29;100.00;97249.50;4767537;30;20059;-81
2023/12/27 05:06:26;;;;;;;1.10;1.10;;;;;;;-3.33;100.00;97245.63;4769288;30;20055;-81
2023/12/27 05:08:54;;;;;;;1.00;1.00;;;;;;;-3.32;100.00;97248.09;4782746;30;20882;-81
2023/12/27 05:11:21;;;;;;;1.10;1.10;;;;;;;-3.34;100.00;97249.25;4783691;29;20056;-81
2023/12/27 05:13:49;;;;;;;1.10;1.10;;;;;;;-3.33;100.00;97241.16;4768926;30;20089;-81
2023/12/27 05:16:18;;;;;;;1.05;1.05;;;;;;;-3.30;100.00;97247.88;4768976;30;20052;-81
2023/12/27 05:18:45;;;;;;;1.10;1.10;;;;;;;-3.33;100.00;97243.00;4782312;30;20109;-80
2023/12/27 05:21:14;;;;;;;0.90;0.90;;;;;;;-3.29;100.00;97246.88;4768939;30;20071;-81
2023/12/27 05:23:41;;;;;;;1.10;1.10;;;;;;;-3.32;100.00;97248.09;4768510;30;20052;-81
2023/12/27 05:26:08;;;;;;;1.10;1.10;;;;;;;-3.33;100.00;97256.19;4767534;30;20048;-80
2023/12/27 05:28:36;;;;;;;1.00;1.00;;;;;;;-3.38;100.00;97259.41;4765835;30;20146;-80
2023/12/27 05:31:03;;;;;;;1.00;1.00;;;;;;;-3.42;100.00;97262.63;4766342;30;20062;-81
2023/12/27 05:33:31;;;;;;;1.02;1.02;;;;;;;-3.43;100.00;97261.03;4767108;30;20152;-80
2023/12/27 05:35:59;;;;;;;1.10;1.10;;;;;;;-3.42;100.00;97254.72;4764291;30;20051;-81
2023/12/27 05:38:26;;;;;;;0.90;0.90;;;;;;;-3.46;100.00;97266.69;4767257;30;20113;-82
2023/12/27 05:40:54;;;;;;;1.00;1.00;;;;;;;-3.55;100.00;97252.84;4769471;30;20518;-81
2023/12/27 05:43:21;;;;;;;0.90;0.90;;;;;;;-3.49;100.00;97257.34;4784603;29;20407;-83
2023/12/27 05:45:48;;;;;;;1.00;1.00;;;;;;;-3.47;100.00;97255.31;4783796;29;20063;-80
2023/12/27 05:48:16;;;;;;;1.02;1.02;;;;;;;-3.46;100.00;97254.31;4764654;30;20112;-80
2023/12/27 05:50:43;;;;;;;1.15;1.15;;;;;;;-3.42;100.00;97257.38;4765092;30;20092;-80
2023/12/27 05:53:11;;;;;;;1.10;1.10;;;;;;;-3.36;100.00;97256.59;4764702;30;20542;-81
2023/12/27 05:55:41;;;;;;;1.13;1.13;;;;;;;-3.31;100.00;97257.63;4765464;30;20427;-81
2023/12/27 05:58:08;;;;;;;1.13;1.13;;;;;;;-3.28;100.00;97251.13;4764781;30;20101;-80
2023/12/27 06:00:35;;;;;;;1.05;1.05;;;;;;;-3.28;100.00;97261.69;4780756;30;20207;-80
2023/12/27 06:03:03;;;;;;;1.10;1.10;;;;;;;-3.33;100.00;97259.63;4764678;30;20048;-80
2023/12/27 06:05:31;;;;;;;1.00;1.00;;;;;;;-3.35;100.00;97258.19;4765902;30;20083;-79
2023/12/27 06:07:59;;;;;;;1.05;1.05;;;;;;;-3.31;100.00;97267.34;4761835;30;20150;-80
2023/12/27 06:10:26;;;;;;;1.30;1.20;;;;;;;-3.33;100.00;97266.75;4766326;30;20075;-80
2023/12/27 06:12:54;;;;;;;0.90;0.90;;;;;;;-3.34;100.00;97268.56;4753138;30;20060;-80
2023/12/27 06:15:22;;;;;;;1.00;1.00;;;;;;;-3.28;100.00;97274.88;4766939;30;20052;-80
2023/12/27 06:17:49;;;;;;;1.10;1.10;;;;;;;-3.31;100.00;97262.09;4766913;30;20086;-81
2023/12/27 06:20:17;;;;;;;0.90;0.90;;;;;;;-3.26;100.00;97278.13;4766508;30;20507;-80
2023/12/27 06:22:45;;;;;;;0.90;0.90;;;;;;;-3.23;100.00;97272.44;4766991;30;20136;-80
2023/12/27 06:25:13;;;;;;;1.10;1.10;;;;;;;-3.22;100.00;97289.09;4765932;30;20074;-79
2023/12/27 06:27:41;;;;;;;1.00;1.00;;;;;;;-3.21;100.00;97294.19;4764645;30;20067;-79
2023/12/27 06:30:08;;;;;;;1.10;1.10;;;;;;;-3.18;100.00;97291.13;4766421;30;20079;-79
2023/12/27 06:32:39;;;;;;;1.00;1.00;;;;;;;-3.10;100.00;97290.94;4765650;30;20054;-81
2023/12/27 06:35:07;;;;;;;1.08;1.08;;;;;;;-3.09;100.00;97286.47;4765330;30;20496;-81
2023/12/27 06:37:35;;;;;;;1.08;1.08;;;;;;;-3.06;100.00;97283.47;4767534;30;20120;-80
2023/12/27 06:40:08;;;;;;;0.88;0.88;;;;;;;-3.07;100.00;97282.63;4766322;30;20051;-81
2023/12/27 06:42:38;;;;;;;1.00;1.00;;;;;;;-3.12;100.00;97290.31;4781885;30;20063;-81
2023/12/27 06:45:06;;;;;;;1.00;1.00;;;;;;;-3.07;100.00;97290.53;4781555;29;20491;-82
2023/12/27 06:47:33;;;;;;;0.93;0.93;;;;;;;-3.05;100.00;97293.00;4766091;30;20143;-79
2023/12/27 06:50:01;;;;;;;1.13;1.13;;;;;;;-3.03;100.00;97298.88;4765091;30;20069;-82
2023/12/27 06:52:29;;;;;;;0.98;0.98;;;;;;;-3.05;100.00;97293.00;4764730;30;20058;-81
2023/12/27 06:54:57;;;;;;;1.10;1.10;;;;;;;-3.02;100.00;97297.06;4779510;30;20074;-82
2023/12/27 06:57:25;;;;;;;1.05;1.05;;;;;;;-2.96;100.00;97304.16;4765608;30;20083;-82
2023/12/27 06:59:52;;;;;;;1.10;1.10;;;;;;;-2.89;100.00;97305.00;4764293;30;20074;-80
2023/12/27 07:02:19;;;;;;;1.10;1.10;;;;;;;-2.83;100.00;97310.31;4765549;30;20083;-82
2023/12/27 07:04:47;;;;;;;1.05;1.05;;;;;;;-2.80;100.00;97310.91;4766394;30;20051;-84
2023/12/27 07:07:15;;;;;;;1.10;1.10;;;;;;;-2.76;100.00;97315.59;4780027;30;20056;-81
2023/12/27 07:09:42;;;;;;;1.00;1.00;;;;;;;-2.75;100.00;97308.50;4766291;30;20558;-82
2023/12/27 07:12:11;;;;;;;0.90;0.90;;;;;;;-2.79;100.00;97317.81;4763714;30;20471;-82
2023/12/27 07:14:39;;;;;;;1.08;1.08;;;;;;;-2.74;100.00;97310.91;4779599;30;20052;-81
2023/12/27 07:17:07;;;;;;;1.10;1.10;;;;;;;-2.69;100.00;97310.31;4764492;30;20070;-81
2023/12/27 07:19:34;;;;;;;1.10;1.10;;;;;;;-2.67;100.00;97311.75;4765824;30;20514;-80
2023/12/27 07:22:02;;;;;;;1.00;1.00;;;;;;;-2.72;100.00;97311.53;4766012;30;20056;-81
2023/12/27 07:24:29;;;;;;;1.10;1.10;;;;;;;-2.69;100.00;97315.59;4766313;30;20051;-82
2023/12/27 07:27:22;;;;;;;1.00;1.00;;;;;;;-2.63;100.00;97322.72;4764736;30;20056;-80
2023/12/27 07:29:50;;;;;;;1.10;1.10;;;;;;;-2.61;100.00;97328.59;4765573;30;20139;-81
2023/12/27 07:32:21;;;;;;;1.10;1.10;;;;;;;-2.59;100.00;97333.69;4766909;30;20067;-81
2023/12/27 07:34:49;;;;;;;1.10;1.10;;;;;;;-2.58;100.00;97337.94;4772201;30;20076;-82
2023/12/27 07:37:16;;;;;;;1.10;1.10;;;;;;;-2.60;100.00;97338.16;4769544;30;20082;-82
2023/12/27 07:39:43;;;;;;;1.25;1.20;;;;;;;-2.56;100.00;97338.56;4769264;29;20403;-79
2023/12/27 07:42:11;;;;;;;1.10;1.10;;;;;;;-2.58;100.00;97343.22;4763909;30;20059;-81
2023/12/27 07:44:38;;;;;;;1.27;1.17;;;;;;;-2.59;100.00;97342.44;4766892;30;20474;-81
2023/12/27 07:47:07;;;;;;;1.13;1.13;;;;;;;-2.57;100.00;97352.81;4767194;30;20051;-79
2023/12/27 07:49:35;;;;;;;1.25;1.17;;;;;;;-2.55;100.00;97345.50;4768781;30;20158;-76
2023/12/27 07:52:03;;;;;;;1.02;1.02;;;;;;;-2.52;100.00;97350.38;4768085;30;20056;-78
2023/12/27 07:54:31;;;;;;;1.02;1.02;;;;;;;-2.45;100.00;97353.84;4752185;30;20048;-80
2023/12/27 07:56:58;;;;;;;1.05;1.05;;;;;;;-2.44;100.00;97350.16;4751917;30;20067;-79
2023/12/27 07:59:26;;;;;;;1.00;1.00;;;;;;;-2.46;100.00;97350.34;4755590;30;20052;-79
2023/12/27 08:01:53;;;;;;;1.00;1.00;;;;;;;-2.49;100.00;97357.88;4767466;30;20123;-79
2023/12/27 08:04:21;;;;;;;1.00;1.00;;;;;;;-2.50;100.00;97357.06;4770491;30;20047;-78
2023/12/27 08:06:49;;;;;;;1.10;1.10;;;;;;;-2.55;100.00;97363.97;4766304;30;20087;-78
2023/12/27 08:09:19;;;;;;;1.10;1.10;;;;;;;-2.51;100.00;97360.72;4766559;30;20064;-78
2023/12/27 08:11:46;;;;;;;1.17;1.15;;;;;;;-2.47;100.00;97361.94;4766186;30;20101;-78
2023/12/27 08:14:14;;;;;;;1.00;1.00;;;;;;;-2.42;100.00;97361.34;4765466;30;20083;-79
2023/12/27 08:16:42;;;;;;;1.00;1.00;;;;;;;-2.42;100.00;97370.09;4765930;30;20469;-78
2023/12/27 08:19:10;;;;;;;1.27;1.17;;;;;;;-2.35;100.00;97371.94;4768710;30;20063;-78
2023/12/27 08:21:37;;;;;;;0.80;0.80;;;;;;;-2.40;100.00;97364.63;4768050;30;20424;-78
2023/12/27 08:24:05;;;;;;;1.30;1.20;;;;;;;-2.40;100.00;97368.06;4769051;30;20143;-80
2023/12/27 08:26:33;;;;;;;1.05;1.05;;;;;;;-2.50;100.00;97375.56;4767553;30;20051;-78
2023/12/27 08:29:02;;;;;;;1.10;1.10;;;;;;;-2.48;100.00;97375.34;4765743;30;20078;-79
2023/12/27 08:31:30;;;;;;;1.30;1.20;;;;;;;-2.48;100.00;97378.00;4765860;30;20069;-80
2023/12/27 08:33:59;;;;;;;1.15;1.15;;;;;;;-2.51;100.00;97384.50;4775189;30;20586;-80
2023/12/27 08:36:29;;;;;;;1.15;1.15;;;;;;;-2.48;100.00;97376.19;4784739;30;20051;-79
2023/12/27 08:38:56;;;;;;;1.25;1.20;;;;;;;-2.46;100.00;97381.25;4775169;29;20423;-80
2023/12/27 08:41:25;;;;;;;1.10;1.10;;;;;;;-2.41;100.00;97387.56;4768484;30;20063;-79
2023/12/27 08:43:53;;;;;;;1.00;1.00;;;;;;;-2.35;100.00;97385.97;4750499;30;20051;-80
2023/12/27 08:46:20;;;;;;;1.30;1.20;;;;;;;-2.26;100.00;97386.56;4768720;30;20527;-78
2023/12/27 08:48:49;;;;;;;1.00;1.00;;;;;;;-2.22;100.00;97380.69;4767977;30;20052;-78
2023/12/27 08:51:16;;;;;;;1.30;1.20;;;;;;;-2.15;100.00;97377.22;4782059;30;20117;-79
2023/12/27 08:53:44;;;;;;;1.10;1.10;;;;;;;-2.07;100.00;97377.84;4762115;30;20052;-80
2023/12/27 08:56:11;;;;;;;1.05;1.05;;;;;;;-1.99;100.00;97380.28;4759366;30;20499;-78
2023/12/27 08:58:38;;;;;;;1.10;1.10;;;;;;;-1.86;100.00;97382.09;4764248;30;20059;-79
2023/12/27 09:01:05;;;;;;;1.05;1.05;;;;;;;-1.72;100.00;97380.25;4747464;30;20426;-79
2023/12/27 09:03:33;;;;;;;1.10;1.10;;;;;;;-1.62;100.00;97383.28;4762099;30;20048;-79
2023/12/27 09:06:01;;;;;;;1.08;1.08;;;;;;;-1.58;100.00;97379.19;4763639;30;20064;-80
2023/12/27 09:08:28;;;;;;;0.95;0.95;;;;;;;-1.58;100.00;97370.44;4765544;30;20048;-79
2023/12/27 09:10:58;;;;;;;1.08;1.08;;;;;;;-1.46;100.00;97370.63;4749465;30;20055;-79
2023/12/27 09:13:26;;;;;;;1.00;1.00;;;;;;;-1.24;100.00;97377.28;4764999;30;20063;-79
2023/12/27 09:15:54;;;;;;;1.13;1.13;;;;;;;-1.04;99.43;97377.19;4765574;30;20164;-78
2023/12/27 09:18:21;;;;;;;1.00;1.00;;;;;;;-0.88;98.96;97376.72;4765436;30;20072;-79
2023/12/27 09:20:49;;;;;;;1.30;1.20;;;;;;;-0.87;98.20;97382.84;4756380;30;20196;-79
2023/12/27 09:23:16;;;;;;;1.10;1.10;;;;;;;-0.86;97.93;97384.47;4763548;30;20505;-78
2023/12/27 09:25:45;;;;;;;1.08;1.08;;;;;;;-0.89;97.73;97385.72;4764271;30;20052;-79
2023/12/27 09:28:12;;;;;;;1.10;1.10;;;;;;;-0.90;97.20;97386.72;4779733;30;20048;-79
2023/12/27 09:30:40;;;;;;;1.10;1.10;;;;;;;-0.37;96.04;97382.16;4773549;30;20671;-78
2023/12/27 09:33:08;;;;;;;1.10;1.10;;;;;;;-0.09;94.32;97390.53;4765074;30;20130;-79
2023/12/27 09:35:36;;;;;;;1.30;1.20;;;;;;;-0.13;93.37;97391.97;4766825;30;20085;-80
2023/12/27 09:38:04;;;;;;;1.30;1.20;;;;;;;-0.01;92.61;97389.44;4768048;30;20083;-80
2023/12/27 09:40:33;;;;;;;1.17;1.15;;;;;;;-0.18;92.26;97398.94;4767813;30;20166;-79
2023/12/27 09:43:04;;;;;;;1.23;1.20;;;;;;;-0.04;91.72;97390.69;4765165;30;20055;-79
2023/12/27 09:45:38;;;;;;;1.02;1.02;;;;;;;-0.25;91.44;97399.81;4750294;30;20066;-79
2023/12/27 09:48:06;;;;;;;1.15;1.15;;;;;;;-0.40;91.82;97388.72;4765433;30;20071;-80
2023/12/27 09:50:35;;;;;;;1.00;1.00;;;;;;;-0.53;90.96;97402.84;4778504;30;20052;-79
2023/12/27 09:53:03;;;;;;;1.10;1.10;;;;;;;-0.81;89.61;97399.72;4763726;30;20055;-79
2023/12/27 09:55:32;;;;;;;1.15;1.13;;;;;;;-0.93;90.02;97389.78;4764065;30;20132;-79
2023/12/27 09:58:00;;;;;;;1.10;1.10;;;;;;;-0.92;89.84;97388.75;4766084;30;20056;-78
2023/12/27 10:00:32;;;;;;;1.20;1.20;;;;;;;-0.86;89.09;97381.84;4767987;30;20109;-79
2023/12/27 10:03:04;;;;;;;1.30;1.20;;;;;;;-0.93;88.58;97384.50;4766576;30;20055;-79
2023/12/27 10:06:18;;;;;;;1.10;1.10;;;;;;;-1.00;88.79;97396.16;4763619;30;20122;-81
2023/12/27 10:08:46;;;;;;;1.30;1.20;;;;;;;-1.20;87.96;97393.56;4758478;30;20052;-80
2023/12/27 10:11:14;;;;;;;1.23;1.17;;;;;;;-1.33;87.62;97399.72;4767655;30;20060;-80
2023/12/27 10:14:10;;;;;;;1.30;1.20;;;;;;;-1.40;86.97;97410.31;4765777;30;20060;-79
2023/12/27 10:16:49;;;;;;;1.10;1.10;;;;;;;-1.59;86.98;97388.16;4767413;30;20124;-79
2023/12/27 10:19:59;;;;;;;1.00;1.00;;;;;;;-1.40;87.01;97407.66;4752321;30;20072;-79
2023/12/27 10:22:37;;;;;;;1.02;1.02;;;;;;;-1.37;86.94;97414.38;4766908;30;20062;-80
2023/12/27 10:25:13;;;;;;;1.00;1.00;;;;;;;-1.31;86.27;97414.34;4767514;30;20052;-80
2023/12/27 10:27:50;;;;;;;1.05;1.05;;;;;;;-1.24;86.11;97417.00;4776636;30;20062;-81
2023/12/27 10:30:28;;;;;;;1.10;1.10;;;;;;;-1.25;85.71;97404.78;4779418;29;20424;-79
2023/12/27 10:33:07;;;;;;;1.30;1.20;;;;;;;-1.34;85.36;97401.53;4765581;30;20048;-79
2023/12/27 10:35:59;;;;;;;1.30;1.20;;;;;;;-1.23;85.28;97421.25;4764006;30;20192;-79
2023/12/27 10:38:30;;;;;;;1.13;1.10;;;;;;;-1.17;85.29;97424.91;4765372;30;20739;-79
2023/12/27 10:41:08;;;;;;;1.00;1.00;;;;;;;-1.17;85.40;97419.63;4767358;30;20062;-80
2023/12/27 10:43:42;;;;;;;1.33;1.23;;;;;;;-1.08;85.60;97420.22;4779055;30;20067;-80
2023/12/27 10:46:11;;;;;;;1.30;1.20;;;;;;;-1.08;85.14;97415.72;4763267;30;20052;-79
2023/12/27 10:48:41;;;;;;;1.30;1.20;;;;;;;-0.78;84.94;97428.47;4777434;29;20052;-80
2023/12/27 10:51:09;;;;;;;1.05;1.05;;;;;;;-0.63;84.53;97426.34;4764399;30;20427;-79
2023/12/27 10:53:43;;;;;;;1.08;1.08;;;;;;;-0.56;84.19;97431.59;4763803;30;20715;-79
2023/12/27 10:56:11;;;;;;;1.20;1.20;;;;;;;-0.60;83.70;97439.16;4765813;30;20095;-82
2023/12/27 10:58:46;;;;;;;1.30;1.20;;;;;;;-0.68;83.42;97440.22;4762437;30;20047;-81
2023/12/27 11:01:13;;;;;;;1.10;1.10;;;;;;;-0.75;83.17;97443.94;4765705;30;20055;-80
2023/12/27 11:03:43;;;;;;;1.23;1.20;;;;;;;-0.68;83.45;97456.13;4765591;30;20052;-80
2023/12/27 11:06:11;;;;;;;1.10;1.10;;;;;;;-0.73;83.37;97453.28;4765618;30;20059;-80
2023/12/27 11:08:39;;;;;;;1.30;1.20;;;;;;;-0.83;83.39;97452.91;4763912;30;20519;-79
2023/12/27 11:11:13;;;;;;;1.15;1.15;;;;;;;-0.81;83.98;97458.00;4765033;30;20185;-80
2023/12/27 11:13:43;;;;;;;1.10;1.10;;;;;;;-0.93;83.69;97448.06;4779040;29;20132;-80
2023/12/27 11:16:12;;;;;;;1.20;1.20;;;;;;;-0.94;83.60;97457.03;4761882;30;20071;-80
2023/12/27 11:18:39;;;;;;;1.10;1.10;;;;;;;-0.98;84.27;97463.75;4764256;30;20062;-80
2023/12/27 11:21:10;;;;;;;0.98;0.98;;;;;;;-1.02;84.63;97467.03;4765755;30;20051;-79
2023/12/27 11:23:37;;;;;;;1.10;1.10;;;;;;;-1.08;84.73;97463.38;4766110;30;20052;-80
2023/12/27 11:26:05;;;;;;;1.00;1.00;;;;;;;-1.14;85.18;97472.13;4777882;29;20055;-79
2023/12/27 11:28:33;;;;;;;1.30;1.20;;;;;;;-1.18;85.42;97455.06;4766004;30;20124;-80
2023/12/27 11:31:04;;;;;;;0.90;0.90;;;;;;;-1.19;85.64;97454.25;4764890;30;20062;-80
2023/12/27 11:33:34;;;;;;;1.00;1.00;;;;;;;-1.17;86.13;97468.06;4764568;30;20580;-79